Time;durP1;ratioP1;P1;durP2;ratioP2;P2;SDS_P1;SDS_P2;PMS_P1;PMS_P2;Temp;Humidity;BMP_temperature;BMP_pressure;BME280_temperature;BME280_humidity;BME280_pressure;Samples;Min_cycle;Max_cycle;Signal;HPM_P1;HPM_P2
2022/02/13 00:01:38;;;;;;;21.38;11.68;;;7.70;99.90;;;;;;4955789;28;20023;-83
2022/02/13 00:04:04;;;;;;;20.20;11.45;;;7.40;99.90;;;;;;4956124;28;20114;-83
2022/02/13 00:06:30;;;;;;;19.33;13.23;;;7.70;99.90;;;;;;4955908;28;20026;-83
2022/02/13 00:08:56;;;;;;;20.77;13.02;;;7.60;99.90;;;;;;4955786;28;20043;-83
2022/02/13 00:11:22;;;;;;;19.20;12.65;;;7.10;99.90;;;;;;4955397;28;20073;-83
2022/02/13 00:13:48;;;;;;;21.60;13.25;;;7.50;99.90;;;;;;4939741;29;20492;-83
2022/02/13 00:16:15;;;;;;;23.70;14.20;;;6.90;99.90;;;;;;4955782;28;20078;-83
2022/02/13 00:18:42;;;;;;;21.10;13.98;;;7.40;99.90;;;;;;4955372;28;20090;-82
2022/02/13 00:21:08;;;;;;;20.65;14.32;;;7.20;99.90;;;;;;4955952;28;20043;-83
2022/02/13 00:23:34;;;;;;;22.75;13.13;;;6.60;99.90;;;;;;4955270;28;20475;-83
2022/02/13 00:25:59;;;;;;;24.02;14.35;;;6.80;99.90;;;;;;4954821;29;20035;-82
2022/02/13 00:28:26;;;;;;;23.90;14.07;;;6.60;99.90;;;;;;4954981;28;20031;-83
2022/02/13 00:30:52;;;;;;;21.13;13.95;;;7.10;99.90;;;;;;4954940;28;20046;-83
2022/02/13 00:33:18;;;;;;;25.35;14.32;;;6.50;99.90;;;;;;4955416;28;20028;-83
2022/02/13 00:35:46;;;;;;;24.42;14.70;;;6.40;99.90;;;;;;4955133;28;20049;-83
2022/02/13 00:38:12;;;;;;;29.60;14.55;;;6.80;99.90;;;;;;4954434;28;20380;-82
2022/02/13 00:40:38;;;;;;;22.65;14.55;;;6.80;99.90;;;;;;4954584;28;20035;-82
2022/02/13 00:43:04;;;;;;;27.52;14.98;;;6.80;99.90;;;;;;4954872;28;20034;-82
2022/02/13 00:45:29;;;;;;;27.98;14.57;;;6.90;99.90;;;;;;4954961;28;20035;-83
2022/02/13 00:47:55;;;;;;;22.13;15.35;;;6.50;99.90;;;;;;4955249;28;20074;-83
2022/02/13 00:50:20;;;;;;;27.80;14.65;;;6.60;99.90;;;;;;4937170;28;20043;-82
2022/02/13 00:52:46;;;;;;;25.20;15.02;;;6.10;99.90;;;;;;4954257;28;20118;-82
2022/02/13 00:55:12;;;;;;;24.95;16.27;;;6.40;99.90;;;;;;4955037;28;20038;-83
2022/02/13 00:57:37;;;;;;;21.48;15.20;;;6.00;99.90;;;;;;4954146;28;20109;-83
2022/02/13 01:00:04;;;;;;;29.35;15.52;;;5.90;99.90;;;;;;4954126;28;20023;-82
2022/02/13 01:02:30;;;;;;;32.50;15.77;;;6.00;99.90;;;;;;4955184;28;20031;-83
2022/02/13 01:04:56;;;;;;;28.58;14.73;;;6.10;99.90;;;;;;4953736;28;20590;-82
2022/02/13 01:07:21;;;;;;;23.85;14.65;;;6.70;99.90;;;;;;4954338;28;20101;-83
2022/02/13 01:09:47;;;;;;;21.05;15.30;;;6.70;99.90;;;;;;4954728;28;20055;-82
2022/02/13 01:12:13;;;;;;;22.05;14.43;;;6.70;99.90;;;;;;4954240;28;20024;-82
2022/02/13 01:14:39;;;;;;;26.98;14.10;;;6.80;99.90;;;;;;4954626;28;20026;-82
2022/02/13 01:17:04;;;;;;;27.40;14.93;;;6.90;99.90;;;;;;4954176;29;20111;-82
2022/02/13 01:19:30;;;;;;;23.35;14.35;;;6.80;99.90;;;;;;4954076;28;20062;-83
2022/02/13 01:21:56;;;;;;;24.30;13.57;;;6.90;99.90;;;;;;4954607;28;20042;-83
2022/02/13 01:24:22;;;;;;;23.63;14.88;;;6.90;99.90;;;;;;4954434;28;20070;-83
2022/02/13 01:26:48;;;;;;;23.85;14.55;;;6.70;99.90;;;;;;4954058;28;20031;-83
2022/02/13 01:29:13;;;;;;;23.80;14.43;;;6.20;99.90;;;;;;4953819;28;20056;-82
2022/02/13 01:31:40;;;;;;;21.83;14.05;;;6.30;99.90;;;;;;4954317;28;20091;-82
2022/02/13 01:34:06;;;;;;;22.90;14.65;;;6.80;99.90;;;;;;4954520;28;20042;-82
2022/02/13 01:36:32;;;;;;;23.15;14.07;;;6.10;99.90;;;;;;4953959;28;20027;-82
2022/02/13 01:38:58;;;;;;;25.70;15.20;;;6.30;99.90;;;;;;4954194;28;20225;-82
2022/02/13 01:41:23;;;;;;;22.70;13.85;;;6.70;99.90;;;;;;4953848;28;20043;-83
2022/02/13 01:43:49;;;;;;;21.85;13.57;;;6.30;99.90;;;;;;4953431;28;20031;-82
2022/02/13 01:46:15;;;;;;;21.83;13.43;;;6.30;99.90;;;;;;4954883;28;20043;-82
2022/02/13 01:48:40;;;;;;;27.65;13.10;;;6.60;99.90;;;;;;4953960;28;20027;-82
2022/02/13 01:51:07;;;;;;;24.88;13.68;;;6.70;99.90;;;;;;4954277;28;20163;-83
2022/02/13 01:53:32;;;;;;;20.67;13.32;;;6.90;99.90;;;;;;4954654;28;20019;-83
2022/02/13 01:56:00;;;;;;;21.98;13.80;;;6.90;99.90;;;;;;4953473;28;20037;-83
2022/02/13 01:58:26;;;;;;;23.00;13.20;;;6.60;99.90;;;;;;4954091;28;20082;-82
2022/02/13 02:00:52;;;;;;;22.65;12.75;;;6.40;99.90;;;;;;4953870;28;20023;-83
2022/02/13 02:03:18;;;;;;;21.50;13.02;;;6.50;99.90;;;;;;4954356;28;20082;-83
2022/02/13 02:05:44;;;;;;;21.33;13.15;;;6.50;99.90;;;;;;4953987;28;20038;-82
2022/02/13 02:08:09;;;;;;;22.83;12.70;;;6.50;99.90;;;;;;4953714;29;20574;-82
2022/02/13 02:10:36;;;;;;;21.58;12.40;;;7.20;99.90;;;;;;4953657;28;20130;-83
2022/02/13 02:13:01;;;;;;;27.30;12.68;;;7.10;99.90;;;;;;4957687;28;20450;-82
2022/02/13 02:15:27;;;;;;;19.40;12.77;;;7.10;99.90;;;;;;4957565;28;20035;-82
2022/02/13 02:17:53;;;;;;;23.73;12.35;;;6.50;99.90;;;;;;4957570;28;20117;-82
2022/02/13 02:20:18;;;;;;;26.30;12.80;;;6.60;99.90;;;;;;4956779;28;20109;-82
2022/02/13 02:22:48;;;;;;;21.20;12.73;;;6.60;99.90;;;;;;4957829;28;20034;-82
2022/02/13 02:25:15;;;;;;;21.58;11.98;;;6.60;99.90;;;;;;4957163;28;20514;-82
2022/02/13 02:27:40;;;;;;;21.35;12.27;;;6.60;99.90;;;;;;4957515;28;20031;-82
2022/02/13 02:30:07;;;;;;;23.58;12.32;;;7.00;99.90;;;;;;4957564;28;20034;-82
2022/02/13 02:32:32;;;;;;;27.23;12.90;;;6.50;99.90;;;;;;4940058;28;20027;-82
2022/02/13 02:35:03;;;;;;;24.00;11.90;;;6.50;99.90;;;;;;4940363;29;20483;-82
2022/02/13 02:37:29;;;;;;;24.10;12.27;;;7.00;99.90;;;;;;4956894;28;20023;-82
2022/02/13 02:39:54;;;;;;;19.42;11.80;;;6.50;99.90;;;;;;4957199;28;20028;-82
2022/02/13 02:42:20;;;;;;;21.45;13.10;;;6.90;99.90;;;;;;4957334;28;20023;-82
2022/02/13 02:44:46;;;;;;;22.67;12.20;;;6.60;99.90;;;;;;4957976;28;20034;-82
2022/02/13 02:47:11;;;;;;;18.33;11.88;;;6.70;99.90;;;;;;4955958;28;20314;-82
2022/02/13 02:49:37;;;;;;;22.90;12.63;;;6.10;99.90;;;;;;4957049;28;20107;-82
2022/02/13 02:52:03;;;;;;;22.77;12.55;;;6.00;99.90;;;;;;4956986;28;20058;-82
2022/02/13 02:54:29;;;;;;;20.02;13.07;;;6.00;99.90;;;;;;4957038;28;20027;-82
2022/02/13 02:56:54;;;;;;;24.15;13.50;;;6.40;99.90;;;;;;4956951;28;20038;-82
2022/02/13 02:59:20;;;;;;;19.95;11.73;;;6.00;99.90;;;;;;4956148;28;20472;-82
2022/02/13 03:01:45;;;;;;;24.55;13.38;;;5.90;99.90;;;;;;4956906;28;20038;-82
2022/02/13 03:04:11;;;;;;;24.38;12.80;;;6.00;99.90;;;;;;4957006;28;20027;-82
2022/02/13 03:06:38;;;;;;;22.55;12.30;;;6.50;99.90;;;;;;4956246;28;20086;-83
2022/02/13 03:09:04;;;;;;;23.33;12.32;;;6.40;99.90;;;;;;4956792;28;20081;-82
2022/02/13 03:11:30;;;;;;;21.52;11.68;;;6.70;99.90;;;;;;4956746;28;20047;-82
2022/02/13 03:13:56;;;;;;;18.95;11.75;;;6.10;99.90;;;;;;4955945;28;20028;-82
2022/02/13 03:16:22;;;;;;;24.40;12.70;;;6.10;99.90;;;;;;4956795;28;20037;-82
2022/02/13 03:18:47;;;;;;;21.13;11.95;;;6.50;99.90;;;;;;4956379;28;20039;-82
2022/02/13 03:21:13;;;;;;;25.90;12.75;;;6.50;99.90;;;;;;4956474;28;20094;-82
2022/02/13 03:23:39;;;;;;;25.55;11.70;;;6.10;99.90;;;;;;4940616;28;20027;-82
2022/02/13 03:26:05;;;;;;;19.10;11.88;;;6.10;99.90;;;;;;4955735;29;20026;-82
2022/02/13 03:28:30;;;;;;;22.33;11.20;;;6.10;99.90;;;;;;4956559;28;20035;-82
2022/02/13 03:30:56;;;;;;;20.45;11.75;;;6.40;99.90;;;;;;4955935;28;20094;-82
2022/02/13 03:33:21;;;;;;;20.63;12.27;;;6.70;99.90;;;;;;4956442;28;20031;-82
2022/02/13 03:35:47;;;;;;;23.15;11.70;;;6.80;99.90;;;;;;4956334;28;20038;-82
2022/02/13 03:38:13;;;;;;;20.25;12.52;;;6.10;99.90;;;;;;4955234;28;20027;-82
2022/02/13 03:40:39;;;;;;;26.60;12.38;;;5.90;99.90;;;;;;4955616;28;20038;-82
2022/02/13 03:43:06;;;;;;;21.27;13.27;;;6.20;99.90;;;;;;4956275;28;20027;-82
2022/02/13 03:45:32;;;;;;;19.20;12.10;;;5.60;99.90;;;;;;4956200;28;20106;-82
2022/02/13 03:47:58;;;;;;;20.30;12.02;;;6.10;99.90;;;;;;4956030;28;20042;-82
2022/02/13 03:50:24;;;;;;;21.80;14.05;;;6.10;99.90;;;;;;4955760;28;20039;-82
2022/02/13 03:52:49;;;;;;;20.30;13.07;;;5.70;99.90;;;;;;4955307;28;20039;-82
2022/02/13 03:55:16;;;;;;;21.58;11.63;;;5.70;99.90;;;;;;4955982;28;20378;-82
2022/02/13 03:57:43;;;;;;;23.08;13.18;;;6.00;99.90;;;;;;4955834;28;20031;-82
2022/02/13 04:00:11;;;;;;;22.02;12.23;;;5.80;99.90;;;;;;4955726;28;20023;-82
2022/02/13 04:02:37;;;;;;;22.52;12.65;;;5.60;99.90;;;;;;4956097;28;20031;-82
2022/02/13 04:05:03;;;;;;;18.52;12.27;;;5.90;99.90;;;;;;4954594;29;20078;-83
2022/02/13 04:07:29;;;;;;;20.20;12.30;;;5.60;99.90;;;;;;4955753;28;20440;-82
2022/02/13 04:09:57;;;;;;;22.20;11.82;;;6.00;99.90;;;;;;4955583;28;20127;-82
2022/02/13 04:12:26;;;;;;;22.38;12.88;;;5.90;99.90;;;;;;4955580;28;20472;-82
2022/02/13 04:14:52;;;;;;;22.15;12.30;;;5.80;99.90;;;;;;4955712;28;20923;-83
2022/02/13 04:17:18;;;;;;;21.90;12.23;;;5.30;99.90;;;;;;4955140;28;20019;-82
2022/02/13 04:19:44;;;;;;;20.13;12.25;;;6.00;99.90;;;;;;4955005;28;20113;-81
2022/02/13 04:22:10;;;;;;;19.65;11.77;;;6.00;99.90;;;;;;4955177;28;20410;-83
2022/02/13 04:24:36;;;;;;;21.30;12.10;;;5.80;99.90;;;;;;4955712;28;20033;-83
2022/02/13 04:27:02;;;;;;;19.73;11.70;;;6.10;99.90;;;;;;4955255;28;20043;-82
2022/02/13 04:29:28;;;;;;;20.00;11.52;;;5.50;99.90;;;;;;4955214;28;20049;-83
2022/02/13 04:31:53;;;;;;;21.63;10.82;;;5.60;99.90;;;;;;4955216;29;20411;-82
2022/02/13 04:34:19;;;;;;;18.65;11.07;;;5.80;99.90;;;;;;4954051;28;20463;-82
2022/02/13 04:36:45;;;;;;;17.98;11.68;;;5.70;99.90;;;;;;4954875;28;20079;-82
2022/02/13 04:39:11;;;;;;;21.55;10.85;;;5.80;99.90;;;;;;4955308;28;20050;-82
2022/02/13 04:41:36;;;;;;;16.60;10.73;;;6.10;99.90;;;;;;4955128;28;20057;-83
2022/02/13 04:44:02;;;;;;;20.42;11.27;;;6.20;99.90;;;;;;4954217;29;20028;-82
2022/02/13 04:46:27;;;;;;;17.85;10.43;;;5.60;99.90;;;;;;4955448;28;20039;-82
2022/02/13 04:48:53;;;;;;;18.80;10.85;;;6.10;99.90;;;;;;4954499;28;20031;-82
2022/02/13 04:51:19;;;;;;;22.95;11.10;;;5.80;99.90;;;;;;4954568;28;20122;-82
2022/02/13 04:53:45;;;;;;;20.08;11.27;;;5.70;99.90;;;;;;4955523;28;20033;-82
2022/02/13 04:56:10;;;;;;;19.50;11.65;;;6.10;99.90;;;;;;4954020;29;20035;-82
2022/02/13 04:58:36;;;;;;;17.52;11.10;;;5.60;99.90;;;;;;4939908;29;20086;-82
2022/02/13 05:01:02;;;;;;;18.88;10.77;;;6.10;99.90;;;;;;4954639;28;20496;-82
2022/02/13 05:03:27;;;;;;;22.00;10.73;;;6.00;99.90;;;;;;4954762;28;20407;-82
2022/02/13 05:05:54;;;;;;;16.55;10.30;;;5.60;99.90;;;;;;4954610;28;20113;-82
2022/02/13 05:08:20;;;;;;;18.83;10.50;;;6.20;99.90;;;;;;4953936;28;20034;-82
2022/02/13 05:10:46;;;;;;;16.60;9.65;;;6.00;99.90;;;;;;4954329;28;20067;-82
2022/02/13 05:13:12;;;;;;;16.30;10.07;;;6.00;99.90;;;;;;4954626;28;20055;-82
2022/02/13 05:15:37;;;;;;;18.00;10.35;;;6.20;99.90;;;;;;4954548;28;20035;-82
2022/02/13 05:18:03;;;;;;;17.27;10.15;;;5.70;99.90;;;;;;4954502;28;20404;-82
2022/02/13 05:20:29;;;;;;;16.25;9.95;;;5.50;99.90;;;;;;4954823;28;20054;-82
2022/02/13 05:22:55;;;;;;;16.55;10.48;;;6.00;99.90;;;;;;4953516;29;20027;-82
2022/02/13 05:25:21;;;;;;;16.10;9.88;;;6.00;99.90;;;;;;4954230;28;20035;-82
2022/02/13 05:27:47;;;;;;;18.30;10.50;;;5.40;99.90;;;;;;4954312;28;20027;-82
2022/02/13 05:30:12;;;;;;;18.55;10.40;;;5.90;99.90;;;;;;4954529;28;20123;-82
2022/02/13 05:32:38;;;;;;;15.57;10.05;;;5.80;99.90;;;;;;4954305;28;20046;-82
2022/02/13 05:35:04;;;;;;;15.80;10.40;;;5.70;99.90;;;;;;4954119;29;20027;-82
2022/02/13 05:37:30;;;;;;;19.17;10.57;;;5.30;99.90;;;;;;4953753;28;20046;-82
2022/02/13 05:39:56;;;;;;;18.85;11.10;;;5.30;99.90;;;;;;4954341;28;20035;-82
2022/02/13 05:42:23;;;;;;;18.98;10.48;;;5.80;99.90;;;;;;4954071;28;20082;-82
2022/02/13 05:44:52;;;;;;;14.50;9.63;;;5.30;99.90;;;;;;4954181;28;20023;-82
2022/02/13 05:47:18;;;;;;;18.42;11.25;;;5.30;99.90;;;;;;4955985;28;20042;-82
2022/02/13 05:49:44;;;;;;;18.52;10.60;;;5.30;99.90;;;;;;4958428;28;20031;-82
2022/02/13 05:52:09;;;;;;;18.35;10.98;;;5.60;99.90;;;;;;4958914;28;20488;-82
2022/02/13 05:54:35;;;;;;;17.20;11.20;;;5.70;99.90;;;;;;4957907;28;20110;-82
2022/02/13 05:57:02;;;;;;;15.48;11.00;;;5.10;99.90;;;;;;4957899;28;20035;-82
2022/02/13 05:59:27;;;;;;;18.63;11.20;;;5.10;99.90;;;;;;4958351;28;20702;-82
2022/02/13 06:01:53;;;;;;;16.90;10.50;;;5.00;99.90;;;;;;4956969;28;20106;-82
2022/02/13 06:04:23;;;;;;;18.58;11.35;;;4.90;99.90;;;;;;4957769;28;20403;-82
2022/02/13 06:06:50;;;;;;;19.45;10.93;;;4.90;99.90;;;;;;4957762;28;20035;-82
2022/02/13 06:09:17;;;;;;;20.08;11.38;;;4.90;99.90;;;;;;4958020;28;20027;-82
2022/02/13 06:11:43;;;;;;;16.83;10.65;;;5.00;99.90;;;;;;4957695;28;20027;-82
2022/02/13 06:14:08;;;;;;;15.77;10.07;;;5.60;99.90;;;;;;4956914;29;20057;-82
2022/02/13 06:16:34;;;;;;;18.55;10.13;;;5.70;99.90;;;;;;4957086;28;20039;-83
2022/02/13 06:19:00;;;;;;;14.10;9.93;;;5.60;99.90;;;;;;4957859;28;20035;-81
2022/02/13 06:21:25;;;;;;;16.45;10.25;;;5.60;99.90;;;;;;4957411;28;20380;-82
2022/02/13 06:23:51;;;;;;;17.48;9.90;;;5.20;99.90;;;;;;4957984;28;20031;-82
2022/02/13 06:26:17;;;;;;;14.95;9.88;;;5.70;99.90;;;;;;4956597;28;20459;-82
2022/02/13 06:28:43;;;;;;;17.60;9.88;;;5.30;99.90;;;;;;4957548;28;20034;-82
2022/02/13 06:31:09;;;;;;;18.35;10.63;;;5.90;99.90;;;;;;4957416;28;20047;-82
2022/02/13 06:33:34;;;;;;;16.60;9.88;;;5.70;99.90;;;;;;4957174;28;20103;-82
2022/02/13 06:36:00;;;;;;;17.13;10.48;;;5.30;99.90;;;;;;4957690;28;20035;-82
2022/02/13 06:38:26;;;;;;;19.20;10.27;;;5.40;99.90;;;;;;4957404;28;20019;-82
2022/02/13 06:40:51;;;;;;;16.60;10.52;;;5.50;99.90;;;;;;4956578;29;20090;-82
2022/02/13 06:43:17;;;;;;;20.13;10.50;;;4.90;99.90;;;;;;4957082;28;20067;-82
2022/02/13 06:45:43;;;;;;;15.50;10.15;;;5.40;99.90;;;;;;4956993;28;20065;-82
2022/02/13 06:48:08;;;;;;;17.23;10.60;;;4.90;99.90;;;;;;4957134;28;20098;-82
2022/02/13 06:50:35;;;;;;;16.85;10.05;;;5.40;99.90;;;;;;4957425;28;20855;-82
2022/02/13 06:53:04;;;;;;;17.45;10.52;;;4.90;99.90;;;;;;4956196;28;20039;-83
2022/02/13 06:55:30;;;;;;;19.52;10.57;;;5.00;99.90;;;;;;4956672;28;20035;-82
2022/02/13 06:57:56;;;;;;;14.95;10.63;;;5.20;99.90;;;;;;4955926;28;20086;-83
2022/02/13 07:00:22;;;;;;;13.88;10.00;;;5.70;99.90;;;;;;4957180;28;20370;-82
2022/02/13 07:02:48;;;;;;;16.98;10.63;;;5.30;99.90;;;;;;4957106;28;20131;-82
2022/02/13 07:05:14;;;;;;;20.85;10.52;;;5.30;99.90;;;;;;4956112;28;20495;-82
2022/02/13 07:07:40;;;;;;;17.08;10.68;;;5.00;99.90;;;;;;4956275;28;20106;-82
2022/02/13 07:10:07;;;;;;;17.67;10.65;;;5.00;99.90;;;;;;4956697;28;20043;-82
2022/02/13 07:12:33;;;;;;;15.57;9.75;;;5.10;99.90;;;;;;4956567;28;20086;-83
2022/02/13 07:14:59;;;;;;;19.17;10.40;;;5.20;99.90;;;;;;4956951;28;20034;-83
2022/02/13 07:17:25;;;;;;;18.55;10.95;;;5.20;99.90;;;;;;4956438;28;20031;-82
2022/02/13 07:19:51;;;;;;;15.20;9.65;;;5.00;99.90;;;;;;4940126;29;20408;-83
2022/02/13 07:22:17;;;;;;;16.25;9.93;;;5.20;99.90;;;;;;4956379;28;20035;-83
2022/02/13 07:24:43;;;;;;;15.80;10.98;;;5.60;99.90;;;;;;4956341;28;20491;-83
2022/02/13 07:27:08;;;;;;;14.75;9.60;;;5.80;99.90;;;;;;4957210;28;20114;-83
2022/02/13 07:29:37;;;;;;;16.65;9.68;;;5.40;99.90;;;;;;4955819;28;20065;-82
2022/02/13 07:32:04;;;;;;;18.33;9.38;;;5.50;99.90;;;;;;4955691;29;20512;-83
2022/02/13 07:34:30;;;;;;;17.88;10.43;;;5.70;99.90;;;;;;4956484;28;20042;-82
2022/02/13 07:37:01;;;;;;;14.77;9.07;;;5.70;99.90;;;;;;4957102;28;20523;-82
2022/02/13 07:39:32;;;;;;;18.10;9.43;;;6.40;99.90;;;;;;4956549;28;20041;-81
2022/02/13 07:41:58;;;;;;;13.68;8.85;;;5.90;99.90;;;;;;4956188;28;20074;-82
2022/02/13 07:44:24;;;;;;;15.38;9.73;;;6.60;99.90;;;;;;4955877;28;20090;-82
2022/02/13 07:46:50;;;;;;;15.48;9.30;;;6.60;99.90;;;;;;4955185;28;20027;-83
2022/02/13 07:49:16;;;;;;;12.75;8.73;;;6.50;99.90;;;;;;4956176;28;20407;-82
2022/02/13 07:51:42;;;;;;;14.40;9.13;;;6.10;99.90;;;;;;4955876;28;20086;-82
2022/02/13 07:54:08;;;;;;;16.27;9.55;;;6.80;99.90;;;;;;4956243;28;20039;-82
2022/02/13 07:56:34;;;;;;;14.50;8.82;;;6.30;99.90;;;;;;4955473;28;20110;-82
2022/02/13 07:59:00;;;;;;;15.70;9.02;;;6.40;99.90;;;;;;4955254;29;20027;-82
2022/02/13 08:01:26;;;;;;;16.35;8.93;;;6.80;99.90;;;;;;4955634;28;20047;-82
2022/02/13 08:03:51;;;;;;;14.18;8.65;;;6.60;99.90;;;;;;4955698;28;20029;-83
2022/02/13 08:06:18;;;;;;;12.95;8.35;;;7.20;99.90;;;;;;4955417;28;20043;-82
2022/02/13 08:08:45;;;;;;;15.23;8.45;;;6.90;99.90;;;;;;4956043;28;20026;-83
2022/02/13 08:11:12;;;;;;;13.32;8.30;;;7.10;99.90;;;;;;4954658;29;20035;-82
2022/02/13 08:13:38;;;;;;;14.73;8.25;;;7.60;99.90;;;;;;4957103;28;20035;-82
2022/02/13 08:16:04;;;;;;;14.95;8.23;;;9.20;99.90;;;;;;4955277;28;20038;-84
2022/02/13 08:18:29;;;;;;;15.38;8.52;;;11.00;99.90;;;;;;4954382;28;20038;-87
2022/02/13 08:20:55;;;;;;;12.63;8.43;;;12.20;99.90;;;;;;4953031;28;20051;-83
2022/02/13 08:23:25;;;;;;;14.20;9.10;;;13.20;99.90;;;;;;4935634;28;20055;-83
2022/02/13 08:25:52;;;;;;;13.15;8.50;;;15.10;99.90;;;;;;4954095;28;20145;-83
2022/02/13 08:28:18;;;;;;;11.70;8.57;;;16.90;99.90;;;;;;4955849;28;20038;-85
2022/02/13 08:30:44;;;;;;;11.32;7.85;;;19.20;99.90;;;;;;4955791;28;20114;-83
2022/02/13 08:33:10;;;;;;;12.18;7.45;;;20.50;99.90;;;;;;4955140;28;20023;-83
2022/02/13 08:35:36;;;;;;;14.63;8.68;;;21.90;99.90;;;;;;4955082;28;20050;-82
2022/02/13 08:38:03;;;;;;;11.57;6.78;;;21.80;99.90;;;;;;4954271;29;20146;-82
2022/02/13 08:40:30;;;;;;;12.25;7.70;;;21.50;99.90;;;;;;4954575;28;20039;-83
2022/02/13 08:42:58;;;;;;;10.48;7.28;;;21.40;99.90;;;;;;4955509;28;20037;-84
2022/02/13 08:45:27;;;;;;;14.13;7.22;;;22.00;99.90;;;;;;4955109;28;20452;-83
2022/02/13 08:47:53;;;;;;;11.63;6.97;;;23.20;99.90;;;;;;4954770;28;20034;-84
2022/02/13 08:50:19;;;;;;;11.73;6.72;;;23.00;99.90;;;;;;4954117;28;20403;-83
2022/02/13 08:52:45;;;;;;;10.25;6.93;;;21.80;99.90;;;;;;4954785;28;20036;-83
2022/02/13 08:55:14;;;;;;;9.93;5.97;;;22.30;99.90;;;;;;4955000;28;20420;-83
2022/02/13 08:57:40;;;;;;;7.10;4.60;;;21.80;99.90;;;;;;4954698;28;20027;-83
2022/02/13 09:00:06;;;;;;;7.82;5.82;;;20.30;99.90;;;;;;4956915;28;20400;-83
2022/02/13 09:02:33;;;;;;;9.05;5.63;;;19.00;99.90;;;;;;4959182;28;20055;-82
2022/02/13 09:04:59;;;;;;;7.03;5.00;;;19.30;99.90;;;;;;4938390;29;20027;-84
2022/02/13 09:07:25;;;;;;;10.32;5.40;;;20.40;99.90;;;;;;4954431;28;20480;-83
2022/02/13 09:09:51;;;;;;;8.77;5.05;;;20.80;99.90;;;;;;4954092;28;20042;-84
2022/02/13 09:12:19;;;;;;;6.93;5.45;;;20.10;99.90;;;;;;4954488;28;20024;-83
2022/02/13 09:14:46;;;;;;;10.65;5.60;;;19.70;99.90;;;;;;4954945;28;20031;-84
2022/02/13 09:17:11;;;;;;;7.15;5.53;;;19.10;99.90;;;;;;4953513;29;20078;-84
2022/02/13 09:19:37;;;;;;;9.80;6.03;;;20.40;99.90;;;;;;4953938;28;20047;-83
2022/02/13 09:22:03;;;;;;;7.57;5.38;;;21.00;99.90;;;;;;4953583;28;20424;-83
2022/02/13 09:24:28;;;;;;;8.45;5.55;;;20.30;99.90;;;;;;4953741;28;20058;-83
2022/02/13 09:26:54;;;;;;;8.18;5.22;;;19.80;99.90;;;;;;4954766;28;20035;-83
2022/02/13 09:29:19;;;;;;;10.88;5.30;;;19.60;99.90;;;;;;4943562;28;20031;-85
2022/02/13 09:31:45;;;;;;;8.25;5.18;;;19.90;99.90;;;;;;4950512;28;20059;-84
2022/02/13 09:34:13;;;;;;;10.98;5.72;;;19.60;99.90;;;;;;4936319;29;20024;-84
2022/02/13 09:36:40;;;;;;;6.80;5.18;;;19.80;99.90;;;;;;4954527;28;20035;-83
2022/02/13 09:39:06;;;;;;;8.40;5.30;;;20.40;99.90;;;;;;4953752;28;20024;-84
2022/02/13 09:41:32;;;;;;;9.02;5.32;;;20.90;99.90;;;;;;4954008;28;20042;-84
2022/02/13 09:43:57;;;;;;;7.40;5.30;;;21.00;99.90;;;;;;4953471;29;20030;-84
2022/02/13 09:46:23;;;;;;;7.07;4.78;;;20.60;99.90;;;;;;4939965;29;20045;-84
2022/02/13 09:48:51;;;;;;;7.95;5.38;;;21.90;99.90;;;;;;4954301;28;20034;-84
2022/02/13 09:51:17;;;;;;;7.00;4.85;;;21.50;99.90;;;;;;4953902;28;20035;-84
2022/02/13 09:53:43;;;;;;;9.45;5.20;;;20.00;99.90;;;;;;4954252;28;20060;-84
2022/02/13 09:56:09;;;;;;;7.18;5.00;;;21.40;99.90;;;;;;4949037;29;20114;-84
2022/02/13 09:58:35;;;;;;;7.50;5.13;;;19.70;99.90;;;;;;4954425;28;20466;-84
2022/02/13 10:01:08;;;;;;;7.10;5.15;;;20.10;99.90;;;;;;4953943;28;20031;-84
2022/02/13 10:03:35;;;;;;;8.05;4.70;;;20.40;99.90;;;;;;4954225;28;20033;-84
2022/02/13 10:06:11;;;;;;;7.47;5.05;;;21.40;99.90;;;;;;4953961;28;20411;-84
2022/02/13 10:08:42;;;;;;;5.97;3.35;;;21.40;99.90;;;;;;4953823;28;20094;-84
2022/02/13 10:11:25;;;;;;;8.73;4.78;;;19.50;99.90;;;;;;4953032;29;20086;-84
2022/02/13 10:14:22;;;;;;;6.82;3.88;;;20.60;99.90;;;;;;4954927;28;20580;-84
2022/02/13 10:16:49;;;;;;;8.95;4.68;;;20.00;99.90;;;;;;4941746;29;20044;-84
2022/02/13 10:19:15;;;;;;;8.57;4.90;;;20.40;99.90;;;;;;4953701;28;20031;-83
2022/02/13 10:21:42;;;;;;;6.53;4.50;;;21.40;99.90;;;;;;4953914;28;20027;-84
2022/02/13 10:24:21;;;;;;;7.75;4.55;;;20.00;99.90;;;;;;4954063;28;20612;-84
2022/02/13 10:26:51;;;;;;;6.20;3.97;;;22.30;99.90;;;;;;4939515;28;20439;-84
2022/02/13 10:29:19;;;;;;;7.25;4.63;;;20.90;99.90;;;;;;4953226;28;20035;-84
2022/02/13 10:31:44;;;;;;;6.85;4.60;;;22.20;99.90;;;;;;4954081;28;20036;-84
2022/02/13 10:34:14;;;;;;;6.18;4.45;;;21.40;99.90;;;;;;4957186;28;20039;-84
2022/02/13 10:36:43;;;;;;;6.40;4.45;;;23.60;99.90;;;;;;4957157;28;20034;-84
2022/02/13 10:39:24;;;;;;;5.28;4.25;;;23.90;99.90;;;;;;4957765;28;20028;-84
2022/02/13 10:41:50;;;;;;;9.57;4.40;;;24.30;99.90;;;;;;4943130;28;20030;-84
2022/02/13 10:44:16;;;;;;;7.57;4.93;;;22.80;99.90;;;;;;4956645;28;20173;-84
2022/02/13 10:46:43;;;;;;;6.25;4.85;;;24.70;99.90;;;;;;4957044;28;20050;-84
2022/02/13 10:49:12;;;;;;;7.20;4.40;;;26.30;99.90;;;;;;4956953;28;20042;-84
2022/02/13 10:51:37;;;;;;;4.50;3.92;;;25.40;99.90;;;;;;4956944;28;20039;-84
2022/02/13 10:54:04;;;;;;;4.28;3.72;;;24.40;99.90;;;;;;4956998;28;20046;-84
2022/02/13 10:56:30;;;;;;;6.05;4.53;;;24.30;99.90;;;;;;4957365;28;20050;-84
2022/02/13 10:58:56;;;;;;;5.05;4.13;;;23.70;99.90;;;;;;4956268;29;20380;-84
2022/02/13 11:01:23;;;;;;;4.60;3.90;;;25.40;99.90;;;;;;4956777;28;20027;-84
2022/02/13 11:03:51;;;;;;;5.50;4.80;;;24.70;99.90;;;;;;4958061;28;20039;-83
2022/02/13 11:06:17;;;;;;;7.07;3.85;;;25.50;99.90;;;;;;4966455;28;20023;-86
2022/02/13 11:08:58;;;;;;;6.35;4.38;;;24.50;99.90;;;;;;4957165;28;20499;-83
2022/02/13 11:11:24;;;;;;;8.07;4.20;;;23.40;99.90;;;;;;4953814;28;20508;-84
2022/02/13 11:13:50;;;;;;;7.05;4.57;;;24.50;99.90;;;;;;4955947;28;20468;-86
2022/02/13 11:16:37;;;;;;;6.25;4.30;;;24.10;99.90;;;;;;4956912;28;20046;-86
2022/02/13 11:19:07;;;;;;;7.28;4.65;;;24.10;99.90;;;;;;4956768;28;20062;-87
2022/02/13 11:21:35;;;;;;;7.00;4.22;;;24.40;99.90;;;;;;4957890;28;20046;-87
2022/02/13 11:24:02;;;;;;;7.20;4.80;;;22.20;99.90;;;;;;4956798;28;20174;-87
2022/02/13 11:26:41;;;;;;;7.63;4.65;;;22.70;99.90;;;;;;4956876;28;20396;-86
2022/02/13 11:29:12;;;;;;;8.13;4.45;;;22.70;99.90;;;;;;4956002;29;20102;-86
2022/02/13 11:31:39;;;;;;;8.98;5.00;;;24.10;99.90;;;;;;4956288;28;20079;-84
2022/02/13 11:34:12;;;;;;;6.63;4.50;;;25.10;99.90;;;;;;4956166;28;20102;-86
2022/02/13 11:36:49;;;;;;;7.38;3.88;;;24.00;99.90;;;;;;4956503;28;20035;-85
2022/02/13 11:39:39;;;;;;;7.55;3.95;;;23.40;99.90;;;;;;4956659;28;20038;-86
2022/02/13 11:42:08;;;;;;;6.70;4.57;;;24.30;99.90;;;;;;4943323;28;20031;-85
2022/02/13 11:44:37;;;;;;;8.40;4.75;;;22.30;99.90;;;;;;4955692;28;20126;-86
2022/02/13 11:47:05;;;;;;;8.60;5.28;;;22.60;99.90;;;;;;4955647;29;20023;-86
2022/02/13 11:49:30;;;;;;;6.85;4.78;;;23.60;99.90;;;;;;4955885;28;20126;-86
2022/02/13 11:51:58;;;;;;;5.32;4.10;;;23.40;99.90;;;;;;4955190;28;20170;-86
2022/02/13 11:54:42;;;;;;;4.88;4.18;;;23.70;99.90;;;;;;4955900;28;20027;-86
2022/02/13 11:57:10;;;;;;;6.65;4.65;;;22.20;99.90;;;;;;4956089;28;20121;-86
2022/02/13 11:59:52;;;;;;;8.85;4.65;;;23.70;99.90;;;;;;4956525;28;20106;-86
2022/02/13 12:02:40;;;;;;;5.70;4.80;;;26.80;99.90;;;;;;4951586;28;20035;-88
2022/02/13 12:05:06;;;;;;;5.65;4.70;;;25.80;99.90;;;;;;4954999;29;20031;-87
2022/02/13 12:07:37;;;;;;;6.20;4.60;;;24.70;99.90;;;;;;4956121;28;20102;-84
2022/02/13 12:10:04;;;;;;;6.93;5.00;;;23.40;99.90;;;;;;4955682;28;20117;-86
2022/02/13 12:12:31;;;;;;;6.15;4.47;;;23.30;99.90;;;;;;4955429;28;20131;-82
2022/02/13 12:14:57;;;;;;;8.13;5.40;;;24.10;99.90;;;;;;4936467;29;20171;-83
2022/02/13 12:17:27;;;;;;;7.13;5.22;;;24.10;99.90;;;;;;4955240;28;20028;-82
2022/02/13 12:20:00;;;;;;;6.43;5.22;;;23.40;99.90;;;;;;4954337;28;20063;-83
2022/02/13 12:22:26;;;;;;;6.32;5.00;;;25.00;99.90;;;;;;4955430;28;20031;-83
2022/02/13 12:24:53;;;;;;;6.25;5.10;;;23.80;99.90;;;;;;4955163;28;20397;-84
2022/02/13 12:27:21;;;;;;;9.25;5.90;;;23.70;99.90;;;;;;4955322;28;20030;-82
2022/02/13 12:29:51;;;;;;;7.53;5.38;;;24.10;99.90;;;;;;4955743;28;20551;-82
2022/02/13 12:32:17;;;;;;;7.80;5.18;;;23.10;99.90;;;;;;4951142;28;20034;-83
2022/02/13 12:35:13;;;;;;;7.05;5.03;;;22.20;99.90;;;;;;4955037;28;20031;-82
2022/02/13 12:37:44;;;;;;;7.95;5.15;;;21.20;99.90;;;;;;4946029;28;20051;-83
2022/02/13 12:40:19;;;;;;;6.22;5.00;;;23.70;99.90;;;;;;4954882;28;20035;-83